Time;durP1;ratioP1;P1;durP2;ratioP2;P2;SDS_P1;SDS_P2;PMS_P1;PMS_P2;Temp;Humidity;BMP_temperature;BMP_pressure;BME280_temperature;BME280_humidity;BME280_pressure;Samples;Min_cycle;Max_cycle;Signal;HPM_P1;HPM_P2
2021/04/09 00:01:54;;;;;;;2.42;2.10;;;3.70;99.90;;;;;;4389449;32;20096;-58
2021/04/09 00:04:20;;;;;;;2.33;1.67;;;3.60;99.90;;;;;;4367812;32;20085;-59
2021/04/09 00:06:47;;;;;;;2.60;1.98;;;3.50;99.90;;;;;;4348496;32;20105;-57
2021/04/09 00:09:13;;;;;;;1.73;1.62;;;3.60;99.90;;;;;;4361385;32;20074;-59
2021/04/09 00:11:40;;;;;;;2.85;1.80;;;3.60;99.90;;;;;;4367782;32;20089;-57
2021/04/09 00:14:08;;;;;;;2.35;1.90;;;3.60;99.90;;;;;;4387017;32;20093;-58
2021/04/09 00:16:34;;;;;;;2.15;1.58;;;3.70;99.90;;;;;;4384836;32;20100;-58
2021/04/09 00:19:01;;;;;;;2.55;1.98;;;3.60;99.90;;;;;;4380410;32;20194;-58
2021/04/09 00:21:27;;;;;;;1.55;1.45;;;3.60;99.90;;;;;;4368556;32;20089;-58
2021/04/09 00:23:53;;;;;;;2.00;1.67;;;3.60;99.90;;;;;;4376772;32;20451;-58
2021/04/09 00:26:20;;;;;;;1.33;1.23;;;3.50;99.90;;;;;;4367698;32;20174;-59
2021/04/09 00:28:46;;;;;;;2.40;1.80;;;3.60;99.90;;;;;;4384564;32;20069;-58
2021/04/09 00:31:12;;;;;;;2.12;1.70;;;3.50;99.90;;;;;;4385708;32;20085;-58
2021/04/09 00:33:38;;;;;;;1.45;1.35;;;3.50;99.90;;;;;;4367340;32;20512;-58
2021/04/09 00:36:05;;;;;;;2.25;2.05;;;3.40;99.90;;;;;;4388722;32;20508;-57
2021/04/09 00:38:31;;;;;;;2.67;2.00;;;3.50;99.90;;;;;;4367828;32;20105;-58
2021/04/09 00:40:57;;;;;;;1.73;1.62;;;3.30;99.90;;;;;;4379499;32;20062;-58
2021/04/09 00:43:23;;;;;;;2.53;2.10;;;3.30;99.90;;;;;;4368374;32;20073;-58
2021/04/09 00:45:49;;;;;;;1.80;1.52;;;3.30;99.90;;;;;;4376634;32;20073;-58
2021/04/09 00:48:16;;;;;;;2.00;1.70;;;3.30;99.90;;;;;;4375325;32;20430;-59
2021/04/09 00:50:42;;;;;;;2.28;1.60;;;3.30;99.90;;;;;;4369947;32;20488;-58
2021/04/09 00:53:11;;;;;;;1.73;1.45;;;3.30;99.90;;;;;;4383965;32;20487;-58
2021/04/09 00:55:37;;;;;;;1.70;1.60;;;3.30;99.90;;;;;;4387867;32;20096;-58
2021/04/09 00:58:05;;;;;;;1.58;1.48;;;3.20;99.90;;;;;;4377693;32;20094;-58
2021/04/09 01:00:31;;;;;;;2.25;2.00;;;3.10;99.90;;;;;;4368742;32;20736;-59
2021/04/09 01:02:58;;;;;;;3.20;2.35;;;3.10;99.90;;;;;;4378902;32;20085;-58
2021/04/09 01:05:24;;;;;;;2.95;2.05;;;3.10;99.90;;;;;;4380576;32;20082;-58
2021/04/09 01:07:50;;;;;;;2.70;2.10;;;3.00;99.90;;;;;;4363522;32;20088;-58
2021/04/09 01:10:19;;;;;;;2.62;1.70;;;2.90;99.90;;;;;;4367079;32;20523;-59
2021/04/09 01:12:46;;;;;;;2.20;1.48;;;2.90;99.90;;;;;;4384069;32;20231;-58
2021/04/09 01:15:13;;;;;;;1.40;1.30;;;2.80;99.90;;;;;;4368431;32;20089;-58
2021/04/09 01:18:02;;;;;;;1.50;0.98;;;2.70;99.90;;;;;;4363485;32;20073;-58
2021/04/09 01:20:58;;;;;;;1.37;1.08;;;2.60;99.90;;;;;;4355419;32;20077;-58
2021/04/09 01:23:37;;;;;;;2.10;1.27;;;2.60;99.90;;;;;;4386304;32;20453;-59
2021/04/09 01:26:53;;;;;;;1.80;1.37;;;2.50;99.90;;;;;;4354439;32;20082;-57
2021/04/09 01:29:38;;;;;;;1.40;1.30;;;2.50;99.90;;;;;;4389447;32;20504;-59
2021/04/09 01:32:10;;;;;;;1.92;1.73;;;2.60;99.90;;;;;;4390721;32;20096;-58
2021/04/09 01:35:07;;;;;;;2.78;1.60;;;2.40;99.90;;;;;;4359863;32;20062;-59
2021/04/09 01:37:42;;;;;;;;;;;2.40;99.90;;;;;;4376606;32;20504;-58
2021/04/09 01:40:15;;;;;;;2.08;1.42;;;2.40;99.90;;;;;;4389337;32;19973;-59
2021/04/09 01:42:42;;;;;;;1.77;1.45;;;2.50;99.90;;;;;;4363157;32;20087;-57
2021/04/09 01:45:11;;;;;;;1.55;1.42;;;2.50;99.90;;;;;;4371419;32;20073;-60
2021/04/09 01:47:37;;;;;;;2.47;1.67;;;2.50;99.90;;;;;;4374819;32;20088;-58
2021/04/09 01:50:04;;;;;;;3.15;1.95;;;2.50;99.90;;;;;;4377641;32;20062;-59
2021/04/09 01:52:33;;;;;;;3.30;1.80;;;2.40;99.90;;;;;;4374850;32;20070;-59
2021/04/09 01:55:00;;;;;;;3.03;1.90;;;2.30;99.90;;;;;;4382412;32;20153;-57
2021/04/09 01:57:26;;;;;;;3.05;2.22;;;2.30;99.90;;;;;;4371967;32;20088;-59
2021/04/09 01:59:52;;;;;;;3.40;2.45;;;2.20;99.90;;;;;;4364189;32;20548;-58
2021/04/09 02:02:19;;;;;;;2.72;1.98;;;2.10;99.90;;;;;;4349549;32;20096;-59
2021/04/09 02:04:46;;;;;;;3.50;2.28;;;2.00;99.90;;;;;;4369119;32;20097;-58
2021/04/09 02:07:15;;;;;;;3.78;2.10;;;2.00;99.90;;;;;;4356556;32;20062;-57
2021/04/09 02:09:41;;;;;;;3.55;2.45;;;2.10;99.90;;;;;;4388127;32;20097;-57
2021/04/09 02:12:09;;;;;;;4.68;2.30;;;2.00;99.90;;;;;;4365836;32;20137;-59
2021/04/09 02:14:35;;;;;;;4.03;2.03;;;2.00;99.90;;;;;;4368116;32;20094;-58
2021/04/09 02:17:02;;;;;;;2.47;1.90;;;1.90;99.90;;;;;;4346329;32;20165;-59
2021/04/09 02:19:28;;;;;;;3.03;1.90;;;1.90;99.90;;;;;;4350171;32;20506;-59
2021/04/09 02:21:54;;;;;;;2.53;2.00;;;1.90;99.90;;;;;;4387099;32;20158;-59
2021/04/09 02:24:20;;;;;;;2.62;1.90;;;1.80;99.90;;;;;;4353678;32;20560;-58
2021/04/09 02:26:47;;;;;;;3.12;2.25;;;1.80;99.90;;;;;;4370439;32;20140;-58
2021/04/09 02:29:13;;;;;;;3.65;2.22;;;1.70;99.90;;;;;;4371457;32;20072;-58
2021/04/09 02:31:39;;;;;;;4.07;2.20;;;1.60;99.90;;;;;;4377972;32;20152;-57
2021/04/09 02:34:05;;;;;;;2.95;1.85;;;1.50;99.90;;;;;;4374088;32;20150;-58
2021/04/09 02:36:32;;;;;;;1.70;1.37;;;1.60;99.90;;;;;;4374326;32;20082;-58
2021/04/09 02:39:04;;;;;;;2.53;1.60;;;1.40;99.90;;;;;;4382544;32;20156;-58
2021/04/09 02:41:36;;;;;;;2.10;1.75;;;1.40;99.90;;;;;;4366999;32;20066;-58
2021/04/09 02:44:03;;;;;;;1.48;1.33;;;1.40;99.90;;;;;;4361420;32;20097;-59
2021/04/09 02:46:54;;;;;;;3.22;1.75;;;1.30;99.90;;;;;;4366563;32;20073;-57
2021/04/09 02:49:32;;;;;;;2.33;1.58;;;1.30;99.90;;;;;;4367956;32;20080;-59
2021/04/09 02:51:58;;;;;;;6.00;2.20;;;1.30;99.90;;;;;;4388686;32;20492;-58
2021/04/09 02:54:24;;;;;;;5.50;2.85;;;1.30;99.90;;;;;;4366765;32;20504;-58
2021/04/09 02:56:51;;;;;;;2.30;1.73;;;1.30;99.90;;;;;;4370516;32;20141;-58
2021/04/09 02:59:17;;;;;;;4.37;2.72;;;1.20;99.90;;;;;;4371010;32;20074;-57
2021/04/09 03:01:44;;;;;;;3.22;2.20;;;1.30;99.90;;;;;;4355078;32;20065;-59
2021/04/09 03:04:11;;;;;;;2.78;1.77;;;1.30;99.90;;;;;;4352912;32;20081;-58
2021/04/09 03:06:38;;;;;;;2.10;1.87;;;1.30;99.90;;;;;;4364396;32;20080;-59
2021/04/09 03:09:07;;;;;;;3.80;1.90;;;1.30;99.90;;;;;;4356783;32;20100;-58
2021/04/09 03:11:34;;;;;;;3.05;2.25;;;1.40;99.90;;;;;;4363831;32;20661;-58
2021/04/09 03:14:00;;;;;;;2.37;1.70;;;1.40;99.90;;;;;;4382732;32;20074;-57
2021/04/09 03:16:28;;;;;;;1.85;1.60;;;1.40;99.90;;;;;;4360587;32;20076;-59
2021/04/09 03:18:54;;;;;;;1.77;1.40;;;1.50;99.90;;;;;;4369557;32;20069;-57
2021/04/09 03:21:20;;;;;;;2.90;1.60;;;1.50;99.90;;;;;;4380965;32;20501;-59
2021/04/09 03:23:47;;;;;;;1.50;1.40;;;1.40;99.90;;;;;;4389970;32;20125;-57
2021/04/09 03:26:13;;;;;;;1.62;1.40;;;1.50;99.90;;;;;;4380715;32;20568;-58
2021/04/09 03:28:39;;;;;;;1.58;1.48;;;1.70;99.90;;;;;;4386137;32;20162;-58
2021/04/09 03:31:05;;;;;;;2.05;1.90;;;1.60;99.90;;;;;;4387265;32;20546;-59
2021/04/09 03:33:31;;;;;;;2.47;2.03;;;1.40;99.90;;;;;;4369436;32;20155;-58
2021/04/09 03:35:58;;;;;;;2.80;2.17;;;1.30;99.90;;;;;;4377239;32;20066;-58
2021/04/09 03:38:24;;;;;;;2.45;2.05;;;1.40;99.90;;;;;;4379793;32;20141;-58
2021/04/09 03:40:50;;;;;;;2.90;2.60;;;1.40;99.90;;;;;;4385410;32;20138;-58
2021/04/09 03:43:17;;;;;;;3.17;2.15;;;1.40;99.90;;;;;;4367483;32;20078;-57
2021/04/09 03:45:43;;;;;;;2.62;1.80;;;1.40;99.90;;;;;;4374816;32;20081;-57
2021/04/09 03:48:09;;;;;;;2.62;1.83;;;1.30;99.90;;;;;;4364922;32;20073;-58
2021/04/09 03:50:36;;;;;;;1.90;1.58;;;1.40;99.90;;;;;;4364819;32;20097;-58
2021/04/09 03:53:04;;;;;;;1.98;1.70;;;1.40;99.90;;;;;;4386544;32;20093;-58
2021/04/09 03:55:31;;;;;;;1.98;1.48;;;1.30;99.90;;;;;;4368911;32;20169;-59
2021/04/09 03:57:57;;;;;;;1.98;1.48;;;1.40;99.90;;;;;;4376193;32;20573;-57
2021/04/09 04:00:24;;;;;;;3.50;2.00;;;1.30;99.90;;;;;;4368440;32;20081;-57
2021/04/09 04:02:50;;;;;;;2.25;2.00;;;1.30;99.90;;;;;;4385451;32;20073;-59
2021/04/09 04:05:17;;;;;;;3.70;2.70;;;1.40;99.90;;;;;;4374127;32;20073;-57
2021/04/09 04:07:44;;;;;;;4.30;3.30;;;1.40;99.90;;;;;;4379687;32;20100;-58
2021/04/09 04:10:11;;;;;;;5.68;3.90;;;1.40;99.90;;;;;;4364607;32;20085;-59
2021/04/09 04:12:37;;;;;;;5.03;3.80;;;1.40;99.90;;;;;;4364060;32;20077;-57
2021/04/09 04:15:05;;;;;;;5.22;3.65;;;1.40;99.90;;;;;;4382147;32;20074;-57
2021/04/09 04:17:31;;;;;;;3.58;2.40;;;1.40;99.90;;;;;;4375596;32;20065;-58
2021/04/09 04:19:57;;;;;;;3.92;2.62;;;1.40;99.90;;;;;;4380449;32;20498;-57
2021/04/09 04:22:23;;;;;;;6.47;3.83;;;1.40;99.90;;;;;;4375345;32;20497;-58
2021/04/09 04:24:49;;;;;;;5.95;3.95;;;1.30;99.90;;;;;;4382571;32;20560;-58
2021/04/09 04:27:16;;;;;;;5.18;3.45;;;1.30;99.90;;;;;;4369765;32;20066;-58
2021/04/09 04:29:42;;;;;;;5.78;3.10;;;1.40;99.90;;;;;;4388814;32;20170;-57
2021/04/09 04:32:08;;;;;;;4.37;2.97;;;1.30;99.90;;;;;;4379242;32;20153;-58
2021/04/09 04:34:34;;;;;;;6.28;4.03;;;1.40;99.90;;;;;;4387772;32;20104;-58
2021/04/09 04:37:00;;;;;;;6.15;4.05;;;1.40;99.90;;;;;;4372146;32;20077;-58
2021/04/09 04:39:27;;;;;;;5.68;3.85;;;1.40;99.90;;;;;;4391259;32;20065;-59
2021/04/09 04:41:53;;;;;;;4.68;3.37;;;1.40;99.90;;;;;;4380816;32;20476;-58
2021/04/09 04:44:19;;;;;;;4.28;2.70;;;1.30;99.90;;;;;;4368605;32;20086;-58
2021/04/09 04:46:46;;;;;;;4.37;2.87;;;1.30;99.90;;;;;;4386965;32;20069;-59
2021/04/09 04:49:12;;;;;;;5.18;3.60;;;1.40;99.90;;;;;;4373066;32;20058;-59
2021/04/09 04:51:38;;;;;;;4.97;3.05;;;1.30;99.90;;;;;;4381558;32;20161;-58
2021/04/09 04:54:04;;;;;;;3.10;2.35;;;1.40;99.90;;;;;;4364960;32;20140;-58
2021/04/09 04:56:31;;;;;;;3.42;2.45;;;1.40;99.90;;;;;;4381002;32;20076;-59
2021/04/09 04:58:57;;;;;;;3.40;2.50;;;1.40;99.90;;;;;;4383395;32;20074;-58
2021/04/09 05:01:23;;;;;;;3.15;2.50;;;1.40;99.90;;;;;;4386884;32;20092;-59
2021/04/09 05:03:49;;;;;;;3.15;2.50;;;1.40;99.90;;;;;;4366585;32;20085;-58
2021/04/09 05:06:15;;;;;;;3.30;2.60;;;1.50;99.90;;;;;;4375607;32;20154;-59
2021/04/09 05:08:42;;;;;;;4.93;3.20;;;1.50;99.90;;;;;;4358332;32;20078;-59
2021/04/09 05:11:08;;;;;;;3.87;2.78;;;1.40;99.90;;;;;;4371295;32;20158;-58
2021/04/09 05:13:34;;;;;;;3.47;2.55;;;1.60;99.90;;;;;;4386206;32;20083;-59
2021/04/09 05:16:01;;;;;;;3.65;2.70;;;1.40;99.90;;;;;;4380489;32;20077;-58
2021/04/09 05:18:27;;;;;;;3.85;2.50;;;1.40;99.90;;;;;;4373878;32;20078;-58
2021/04/09 05:20:53;;;;;;;4.55;3.12;;;1.40;99.90;;;;;;4375171;32;20091;-58
2021/04/09 05:23:19;;;;;;;5.12;3.60;;;1.40;99.90;;;;;;4375795;32;20078;-59
2021/04/09 05:25:45;;;;;;;5.50;3.75;;;1.40;99.90;;;;;;4363701;32;20072;-58
2021/04/09 05:28:11;;;;;;;4.45;3.20;;;1.30;99.90;;;;;;4387854;32;20062;-59
2021/04/09 05:30:38;;;;;;;5.57;3.83;;;1.40;99.90;;;;;;4383008;32;20089;-58
2021/04/09 05:33:04;;;;;;;6.45;4.57;;;1.50;99.90;;;;;;4383041;32;20058;-57
2021/04/09 05:35:30;;;;;;;6.22;3.67;;;1.40;99.90;;;;;;4374862;32;20070;-58
2021/04/09 05:37:56;;;;;;;5.75;3.70;;;1.50;99.90;;;;;;4377762;32;20120;-58
2021/04/09 05:40:22;;;;;;;4.72;3.35;;;1.50;99.90;;;;;;4387148;32;20054;-58
2021/04/09 05:42:59;;;;;;;5.37;3.58;;;1.50;99.90;;;;;;4366238;32;20069;-58
2021/04/09 05:45:26;;;;;;;3.37;2.50;;;1.50;99.90;;;;;;4345699;32;20468;-58
2021/04/09 05:47:54;;;;;;;3.70;2.42;;;1.50;99.90;;;;;;4363921;32;20070;-58
2021/04/09 05:50:20;;;;;;;3.53;2.20;;;1.50;99.90;;;;;;4361937;32;20065;-57
2021/04/09 05:52:47;;;;;;;4.10;2.50;;;1.70;99.90;;;;;;4381845;32;20066;-59
2021/04/09 05:55:14;;;;;;;2.35;1.98;;;1.70;99.90;;;;;;4357070;32;20484;-59
2021/04/09 05:57:40;;;;;;;2.37;1.90;;;1.70;99.90;;;;;;4384614;32;20150;-59
2021/04/09 06:00:09;;;;;;;2.45;1.87;;;1.70;99.90;;;;;;4365085;32;20105;-57
2021/04/09 06:02:35;;;;;;;3.20;2.00;;;1.60;99.90;;;;;;4385222;32;20511;-57
2021/04/09 06:05:01;;;;;;;2.37;2.12;;;1.70;99.90;;;;;;4362898;32;20098;-58
2021/04/09 06:07:28;;;;;;;3.58;2.17;;;1.70;99.90;;;;;;4361409;32;20074;-58
2021/04/09 06:09:54;;;;;;;2.35;1.90;;;1.70;99.90;;;;;;4365327;32;20077;-58
2021/04/09 06:12:21;;;;;;;2.60;2.03;;;1.80;99.90;;;;;;4388312;32;20089;-58
2021/04/09 06:14:47;;;;;;;3.65;2.30;;;1.90;99.90;;;;;;4385254;32;20091;-58
2021/04/09 06:17:13;;;;;;;2.62;2.10;;;1.80;99.90;;;;;;4368815;32;20086;-57
2021/04/09 06:19:40;;;;;;;3.95;2.40;;;2.00;99.90;;;;;;4374518;32;20614;-58
2021/04/09 06:22:06;;;;;;;5.93;2.60;;;1.90;99.90;;;;;;4379090;32;20062;-58
2021/04/09 06:24:32;;;;;;;4.30;2.37;;;1.80;99.90;;;;;;4384725;32;20160;-58
2021/04/09 06:26:58;;;;;;;3.83;2.58;;;1.90;99.90;;;;;;4382839;32;20066;-57
2021/04/09 06:29:24;;;;;;;2.60;2.10;;;1.80;99.90;;;;;;4354130;32;20058;-58
2021/04/09 06:31:51;;;;;;;3.55;2.08;;;1.80;99.90;;;;;;4387738;32;20583;-59
2021/04/09 06:34:17;;;;;;;3.45;2.40;;;1.80;99.90;;;;;;4386407;32;20093;-59
2021/04/09 06:36:43;;;;;;;4.25;2.30;;;1.80;99.90;;;;;;4382136;32;20066;-57
2021/04/09 06:39:09;;;;;;;4.72;2.35;;;1.80;99.90;;;;;;4362575;32;20183;-57
2021/04/09 06:41:35;;;;;;;2.75;1.98;;;1.80;99.90;;;;;;4378409;32;20141;-58
2021/04/09 06:44:02;;;;;;;2.87;1.98;;;2.10;99.90;;;;;;4386806;32;20084;-59
2021/04/09 06:46:28;;;;;;;3.87;3.12;;;1.90;99.90;;;;;;4366928;32;20081;-57
2021/04/09 06:48:56;;;;;;;3.08;2.37;;;1.90;99.90;;;;;;4383830;32;20186;-57
2021/04/09 06:51:22;;;;;;;3.60;2.15;;;1.90;99.90;;;;;;4371959;32;20101;-58
2021/04/09 06:53:49;;;;;;;3.22;2.05;;;1.80;99.90;;;;;;4364736;32;20174;-58
2021/04/09 06:56:18;;;;;;;2.17;1.67;;;1.90;99.90;;;;;;4349326;32;20074;-58
2021/04/09 06:58:46;;;;;;;1.90;1.52;;;1.90;99.90;;;;;;4351764;32;20070;-57
2021/04/09 07:01:13;;;;;;;1.50;1.40;;;2.00;99.90;;;;;;4370965;32;20068;-58
2021/04/09 07:03:39;;;;;;;1.85;1.62;;;2.00;99.90;;;;;;4365308;32;20081;-57
2021/04/09 07:06:05;;;;;;;2.30;1.90;;;1.90;99.90;;;;;;4374121;32;20488;-58
2021/04/09 07:08:40;;;;;;;1.62;1.52;;;1.90;99.90;;;;;;4366994;32;20528;-58
2021/04/09 07:11:06;;;;;;;1.92;1.77;;;2.00;99.90;;;;;;4380943;32;20175;-58
2021/04/09 07:13:33;;;;;;;1.70;1.60;;;2.00;99.90;;;;;;4381012;32;20066;-58
2021/04/09 07:16:07;;;;;;;2.20;1.58;;;2.10;99.90;;;;;;4361960;32;20528;-57
2021/04/09 07:18:51;;;;;;;2.87;1.60;;;1.90;99.90;;;;;;4355794;32;20066;-59
2021/04/09 07:21:32;;;;;;;1.85;1.50;;;1.90;99.90;;;;;;4379976;32;20081;-58
2021/04/09 07:24:13;;;;;;;1.87;1.33;;;2.00;99.90;;;;;;4361609;32;20141;-58
2021/04/09 07:26:45;;;;;;;1.67;1.42;;;2.00;99.90;;;;;;4381128;32;20097;-58
2021/04/09 07:29:30;;;;;;;2.60;1.73;;;1.90;99.90;;;;;;4355376;32;20061;-57
2021/04/09 07:31:58;;;;;;;2.72;1.33;;;1.90;99.90;;;;;;4388097;32;20085;-57
2021/04/09 07:34:25;;;;;;;3.37;2.05;;;1.90;99.90;;;;;;4378124;32;20179;-57
2021/04/09 07:36:57;;;;;;;1.90;1.50;;;1.90;99.90;;;;;;4345582;32;20089;-57
2021/04/09 07:39:36;;;;;;;1.70;1.42;;;1.80;99.90;;;;;;4378199;32;20191;-57
2021/04/09 07:42:10;;;;;;;2.00;1.50;;;2.00;99.90;;;;;;4374988;32;20589;-57
2021/04/09 07:44:38;;;;;;;1.42;1.33;;;1.80;99.90;;;;;;4370720;32;20070;-58
2021/04/09 07:47:15;;;;;;;1.62;1.42;;;1.90;99.90;;;;;;4382668;32;20493;-57
2021/04/09 07:49:41;;;;;;;3.28;2.33;;;1.80;99.90;;;;;;4364497;32;20069;-59
2021/04/09 07:52:15;;;;;;;3.45;2.05;;;1.70;99.90;;;;;;4374038;32;20089;-57
2021/04/09 07:54:41;;;;;;;1.87;1.60;;;1.80;99.90;;;;;;4355360;32;20444;-57
2021/04/09 07:57:08;;;;;;;3.20;1.80;;;1.80;99.90;;;;;;4380694;32;20124;-57
2021/04/09 07:59:39;;;;;;;3.25;1.87;;;1.80;99.90;;;;;;4372036;32;20074;-57
2021/04/09 08:02:06;;;;;;;1.67;1.58;;;1.80;99.90;;;;;;4352233;32;20613;-58
2021/04/09 08:04:39;;;;;;;3.47;1.75;;;1.90;99.90;;;;;;4360985;32;20155;-58
2021/04/09 08:07:06;;;;;;;1.85;1.35;;;1.90;99.90;;;;;;4385126;32;20142;-61
2021/04/09 08:09:49;;;;;;;2.60;1.45;;;1.80;99.90;;;;;;4368123;32;20080;-59
2021/04/09 08:12:32;;;;;;;2.58;1.92;;;1.80;99.90;;;;;;4377044;32;20453;-57
2021/04/09 08:15:20;;;;;;;2.83;2.53;;;1.80;99.90;;;;;;4369367;32;20085;-57
2021/04/09 08:18:00;;;;;;;3.45;2.97;;;1.80;99.90;;;;;;4351783;32;20524;-59
2021/04/09 08:20:29;;;;;;;5.15;3.00;;;1.80;99.90;;;;;;4387239;32;20170;-58
2021/04/09 08:22:59;;;;;;;3.17;2.20;;;1.90;99.90;;;;;;4371659;32;20169;-59
2021/04/09 08:25:26;;;;;;;3.33;1.73;;;1.90;99.90;;;;;;4380597;32;20073;-58
2021/04/09 08:27:52;;;;;;;1.85;1.23;;;2.00;99.90;;;;;;4373632;32;20096;-59
2021/04/09 08:30:19;;;;;;;2.28;1.80;;;1.90;99.90;;;;;;4378781;32;20065;-58
2021/04/09 08:32:46;;;;;;;3.55;2.30;;;1.90;99.90;;;;;;4360056;32;20514;-58
2021/04/09 08:35:12;;;;;;;3.60;2.40;;;1.90;99.90;;;;;;4372949;32;20148;-58
2021/04/09 08:37:40;;;;;;;3.28;2.60;;;1.90;99.90;;;;;;4342484;32;20153;-57
2021/04/09 08:40:07;;;;;;;4.18;3.00;;;1.90;99.90;;;;;;4376069;32;20084;-56
2021/04/09 08:42:34;;;;;;;4.00;2.87;;;1.80;99.90;;;;;;4379327;32;20058;-58
2021/04/09 08:45:01;;;;;;;3.22;1.95;;;1.80;99.90;;;;;;4372708;32;20153;-58
2021/04/09 08:47:29;;;;;;;3.05;1.83;;;1.80;99.90;;;;;;4381807;32;20135;-59
2021/04/09 08:49:57;;;;;;;3.45;2.37;;;1.70;99.90;;;;;;4383688;32;20078;-58
2021/04/09 08:52:23;;;;;;;2.22;1.58;;;1.80;99.90;;;;;;4380647;32;20074;-58
2021/04/09 08:54:52;;;;;;;3.28;2.00;;;1.80;99.90;;;;;;4386379;32;20091;-62
2021/04/09 08:57:31;;;;;;;6.82;2.00;;;1.80;99.90;;;;;;4361169;32;20081;-60
2021/04/09 09:00:14;;;;;;;2.83;2.00;;;1.70;99.90;;;;;;4373094;32;20486;-57
2021/04/09 09:02:49;;;;;;;3.65;2.10;;;1.70;99.90;;;;;;4368035;32;20074;-58
2021/04/09 09:05:23;;;;;;;4.37;2.08;;;1.70;99.90;;;;;;4377050;32;20504;-58
2021/04/09 09:07:49;;;;;;;2.22;2.03;;;1.80;99.90;;;;;;4366752;32;20102;-58
2021/04/09 09:10:30;;;;;;;1.92;1.75;;;1.80;99.90;;;;;;4390799;32;20078;-56
2021/04/09 09:13:09;;;;;;;1.67;1.37;;;1.80;99.90;;;;;;4383266;32;20105;-56
2021/04/09 09:15:41;;;;;;;2.45;1.98;;;1.90;99.90;;;;;;4385054;32;20143;-57
2021/04/09 09:18:23;;;;;;;2.70;1.80;;;1.80;99.90;;;;;;4381979;32;20165;-58
2021/04/09 09:21:15;;;;;;;2.35;2.10;;;1.70;99.90;;;;;;4383369;32;20165;-57
2021/04/09 09:23:53;;;;;;;1.83;1.73;;;1.80;99.90;;;;;;4385099;32;20070;-59
2021/04/09 09:26:21;;;;;;;1.95;1.83;;;1.70;99.90;;;;;;4381304;32;20154;-57
2021/04/09 09:29:26;;;;;;;2.90;2.10;;;1.70;99.90;;;;;;4351243;32;20509;-56
2021/04/09 09:31:56;;;;;;;2.22;2.03;;;1.80;99.90;;;;;;4386073;32;20531;-60
2021/04/09 09:34:24;;;;;;;4.97;2.92;;;1.70;99.90;;;;;;4381046;32;20081;-59
2021/04/09 09:37:14;;;;;;;2.70;2.30;;;1.70;99.90;;;;;;4389395;32;20504;-59
2021/04/09 09:40:02;;;;;;;3.67;2.78;;;1.70;99.90;;;;;;4391267;32;20448;-57
2021/04/09 09:42:28;;;;;;;3.50;2.20;;;1.80;99.90;;;;;;4372990;32;20146;-58
2021/04/09 09:45:14;;;;;;;2.33;1.70;;;1.70;99.90;;;;;;4389404;32;20069;-58
2021/04/09 09:47:46;;;;;;;2.00;1.80;;;1.60;99.90;;;;;;4372769;32;20077;-58
2021/04/09 09:50:19;;;;;;;2.33;1.85;;;1.60;99.90;;;;;;4380978;32;20610;-58
2021/04/09 09:52:53;;;;;;;6.55;5.50;;;1.60;99.90;;;;;;4361498;32;21082;-58
2021/04/09 09:55:40;;;;;;;7.10;5.62;;;1.60;99.90;;;;;;4377658;32;20101;-58
2021/04/09 09:58:16;;;;;;;7.93;5.75;;;1.70;99.90;;;;;;4356983;32;20054;-56
2021/04/09 10:00:43;;;;;;;7.37;5.28;;;1.70;99.90;;;;;;4382420;32;20484;-55
2021/04/09 10:03:29;;;;;;;10.07;8.13;;;1.70;99.90;;;;;;4371447;32;20081;-57
2021/04/09 10:06:11;;;;;;;6.20;4.57;;;1.70;99.90;;;;;;4371317;32;20070;-58
2021/04/09 10:08:39;;;;;;;4.95;3.00;;;1.70;99.90;;;;;;4364995;32;20126;-56
2021/04/09 10:11:08;;;;;;;2.87;2.12;;;1.70;99.90;;;;;;4350340;32;20069;-56
2021/04/09 10:13:45;;;;;;;2.53;1.60;;;1.70;99.90;;;;;;4374972;32;20145;-57
2021/04/09 10:16:23;;;;;;;1.60;1.50;;;1.70;99.90;;;;;;4365251;32;20073;-58
2021/04/09 10:18:53;;;;;;;1.77;1.62;;;1.60;99.90;;;;;;4360081;32;20512;-57
2021/04/09 10:21:27;;;;;;;1.75;1.40;;;1.70;99.90;;;;;;4368492;32;20077;-57
2021/04/09 10:24:10;;;;;;;1.35;1.20;;;1.60;99.90;;;;;;4359195;32;20169;-56
2021/04/09 10:26:49;;;;;;;1.30;1.20;;;1.70;99.90;;;;;;4376216;32;20085;-56
2021/04/09 10:29:28;;;;;;;1.52;1.33;;;1.60;99.90;;;;;;4371557;32;20142;-58
2021/04/09 10:31:57;;;;;;;2.53;1.52;;;1.60;99.90;;;;;;4389821;32;20062;-57
2021/04/09 10:34:25;;;;;;;2.17;1.77;;;1.60;99.90;;;;;;4386561;32;20576;-57
2021/04/09 10:36:51;;;;;;;2.08;1.60;;;1.60;99.90;;;;;;4368849;32;20146;-57
2021/04/09 10:39:20;;;;;;;2.33;1.67;;;1.60;99.90;;;;;;4369727;32;20154;-57
2021/04/09 10:41:49;;;;;;;2.20;1.70;;;1.60;99.90;;;;;;4369870;32;20071;-61
2021/04/09 10:44:18;;;;;;;2.50;2.15;;;1.60;99.90;;;;;;4356868;32;20526;-58
2021/04/09 10:47:00;;;;;;;2.80;1.98;;;1.70;99.90;;;;;;4367626;32;20161;-58
2021/04/09 10:49:32;;;;;;;3.00;1.90;;;1.70;99.90;;;;;;4357469;32;20072;-57
2021/04/09 10:52:20;;;;;;;1.30;1.20;;;1.70;99.90;;;;;;4369089;32;20101;-60
2021/04/09 10:54:47;;;;;;;2.30;1.40;;;1.60;99.90;;;;;;4380302;32;20090;-57
2021/04/09 10:57:15;;;;;;;1.42;1.33;;;1.90;99.90;;;;;;4360245;32;20093;-58
2021/04/09 10:59:43;;;;;;;1.75;1.65;;;1.80;99.90;;;;;;4371539;32;20085;-58
2021/04/09 11:02:17;;;;;;;1.83;1.60;;;1.80;99.90;;;;;;4361665;32;20600;-56
2021/04/09 11:04:51;;;;;;;1.75;1.65;;;1.80;99.90;;;;;;4355507;32;20082;-58
2021/04/09 11:07:18;;;;;;;2.67;1.87;;;1.70;99.90;;;;;;4344831;32;20074;-57
2021/04/09 11:09:47;;;;;;;2.67;2.17;;;1.70;99.90;;;;;;4371460;32;20061;-58
2021/04/09 11:12:20;;;;;;;1.75;1.52;;;1.70;99.90;;;;;;4371130;32;20078;-57
2021/04/09 11:15:10;;;;;;;2.47;1.62;;;1.80;99.90;;;;;;4382370;32;20069;-57
2021/04/09 11:17:39;;;;;;;1.95;1.75;;;1.70;99.90;;;;;;4383037;32;20075;-56
2021/04/09 11:20:25;;;;;;;1.25;1.10;;;1.70;99.90;;;;;;4379676;32;20093;-57
2021/04/09 11:23:09;;;;;;;1.90;1.55;;;1.80;99.90;;;;;;4377330;32;20103;-57
2021/04/09 11:25:40;;;;;;;1.50;1.40;;;1.70;99.90;;;;;;4368384;32;20068;-58
2021/04/09 11:28:07;;;;;;;3.25;1.87;;;1.90;99.90;;;;;;4385905;32;20520;-58
2021/04/09 11:30:36;;;;;;;2.97;2.67;;;1.80;99.90;;;;;;4381855;32;20054;-56
2021/04/09 11:33:03;;;;;;;2.12;1.87;;;2.10;99.90;;;;;;4350696;32;20521;-57
2021/04/09 11:35:37;;;;;;;2.10;1.60;;;2.20;99.90;;;;;;4381228;32;20069;-57
2021/04/09 11:38:06;;;;;;;1.62;1.50;;;1.90;99.90;;;;;;4358953;32;20062;-58
2021/04/09 11:40:41;;;;;;;1.75;1.40;;;2.00;99.90;;;;;;4360882;32;20505;-56
2021/04/09 11:43:09;;;;;;;1.65;1.33;;;1.90;99.90;;;;;;4372253;32;20094;-57
2021/04/09 11:45:47;;;;;;;1.67;1.45;;;2.00;99.90;;;;;;4371494;32;20058;-56
2021/04/09 11:48:33;;;;;;;2.22;1.55;;;2.00;99.90;;;;;;4368541;32;20076;-56
2021/04/09 11:51:21;;;;;;;1.40;1.27;;;2.00;99.90;;;;;;4379369;32;20108;-55
2021/04/09 11:54:01;;;;;;;1.73;1.30;;;2.10;99.90;;;;;;4378527;32;20074;-56
2021/04/09 11:56:47;;;;;;;1.40;1.30;;;1.90;99.90;;;;;;4347634;32;20572;-55
2021/04/09 11:59:20;;;;;;;1.75;1.48;;;2.00;99.90;;;;;;4352670;32;20085;-56
2021/04/09 12:01:48;;;;;;;1.60;1.48;;;1.90;99.90;;;;;;4367843;32;20086;-56
2021/04/09 12:04:37;;;;;;;1.62;1.30;;;2.00;99.90;;;;;;4361452;32;20070;-56
2021/04/09 12:07:12;;;;;;;2.85;2.05;;;2.00;99.90;;;;;;4376817;32;20061;-56
2021/04/09 12:09:38;;;;;;;2.10;1.65;;;2.00;99.90;;;;;;4361788;32;20560;-56
2021/04/09 12:12:07;;;;;;;2.37;1.80;;;2.00;99.90;;;;;;4366908;32;20105;-56
2021/04/09 12:14:45;;;;;;;2.12;1.83;;;1.90;99.90;;;;;;4363267;32;20073;-57
2021/04/09 12:17:12;;;;;;;1.80;1.60;;;1.90;99.90;;;;;;4383556;32;20066;-56
2021/04/09 12:19:38;;;;;;;1.40;1.30;;;1.90;99.90;;;;;;4375804;32;20093;-57
2021/04/09 12:22:05;;;;;;;1.40;1.30;;;1.90;99.90;;;;;;4390883;32;20101;-56
2021/04/09 12:24:32;;;;;;;2.10;1.40;;;1.90;99.90;;;;;;4382743;32;20138;-58
2021/04/09 12:26:58;;;;;;;2.10;1.62;;;1.90;99.90;;;;;;4387784;32;20508;-57
2021/04/09 12:29:25;;;;;;;1.50;1.40;;;1.80;99.90;;;;;;4371849;32;20089;-56
2021/04/09 12:31:51;;;;;;;1.87;1.52;;;1.90;99.90;;;;;;4373302;32;20066;-56
2021/04/09 12:34:20;;;;;;;1.62;1.45;;;2.00;99.90;;;;;;4388145;32;20095;-56
2021/04/09 12:36:47;;;;;;;1.35;1.17;;;1.80;99.90;;;;;;4378838;32;20173;-55
2021/04/09 12:39:15;;;;;;;1.67;1.40;;;1.80;99.90;;;;;;4366196;32;20153;-55
2021/04/09 12:41:41;;;;;;;1.35;1.20;;;2.00;99.90;;;;;;4360602;32;20609;-57
2021/04/09 12:44:09;;;;;;;2.00;1.70;;;2.00;99.90;;;;;;4372764;32;20124;-56
2021/04/09 12:46:35;;;;;;;1.83;1.70;;;1.90;99.90;;;;;;4363854;32;20058;-54
2021/04/09 12:49:02;;;;;;;1.65;1.50;;;1.90;99.90;;;;;;4373161;32;20499;-57
2021/04/09 12:51:28;;;;;;;1.70;1.60;;;1.90;99.90;;;;;;4386790;32;20148;-56
2021/04/09 12:53:55;;;;;;;1.60;1.30;;;1.80;99.90;;;;;;4373575;32;20073;-56
2021/04/09 12:56:21;;;;;;;1.15;1.05;;;1.90;99.90;;;;;;4378436;32;20061;-56
2021/04/09 12:58:48;;;;;;;1.45;1.35;;;1.90;99.90;;;;;;4360404;32;20088;-57
2021/04/09 13:01:14;;;;;;;3.60;1.37;;;1.90;99.90;;;;;;4349903;32;20073;-56
2021/04/09 13:03:41;;;;;;;1.87;1.42;;;1.90;99.90;;;;;;4374344;32;20121;-57
2021/04/09 13:06:08;;;;;;;1.35;1.20;;;1.90;99.90;;;;;;4372229;32;20062;-55
2021/04/09 13:08:35;;;;;;;0.95;0.95;;;1.90;99.90;;;;;;4382667;32;20073;-55
2021/04/09 13:11:01;;;;;;;1.20;1.10;;;1.90;99.90;;;;;;4376856;32;20081;-55
2021/04/09 13:13:28;;;;;;;1.45;1.17;;;1.90;99.90;;;;;;4383710;32;20077;-55